sensor_id;sensor_type;location;lat;lon;timestamp;temperature;humidity
52621;DHT22;38515;53.160;6.990;2024-02-26T00:00:46;3.70;99.90
52621;DHT22;38515;53.160;6.990;2024-02-26T00:03:12;3.70;99.90
52621;DHT22;38515;53.160;6.990;2024-02-26T00:05:37;3.70;99.90
52621;DHT22;38515;53.160;6.990;2024-02-26T00:08:04;4.20;99.90
52621;DHT22;38515;53.160;6.990;2024-02-26T00:10:30;3.70;99.90
52621;DHT22;38515;53.160;6.990;2024-02-26T00:12:55;3.90;99.90
52621;DHT22;38515;53.160;6.990;2024-02-26T00:15:21;3.70;99.90
52621;DHT22;38515;53.160;6.990;2024-02-26T00:17:47;3.70;99.90
52621;DHT22;38515;53.160;6.990;2024-02-26T00:20:13;3.90;99.90
52621;DHT22;38515;53.160;6.990;2024-02-26T00:22:39;3.60;99.90
52621;DHT22;38515;53.160;6.990;2024-02-26T00:25:05;3.60;99.90
52621;DHT22;38515;53.160;6.990;2024-02-26T00:27:31;3.70;99.90
52621;DHT22;38515;53.160;6.990;2024-02-26T00:29:56;3.70;99.90
52621;DHT22;38515;53.160;6.990;2024-02-26T00:32:22;3.70;99.90
52621;DHT22;38515;53.160;6.990;2024-02-26T00:34:48;3.80;99.90
52621;DHT22;38515;53.160;6.990;2024-02-26T00:37:14;4.20;99.90
52621;DHT22;38515;53.160;6.990;2024-02-26T00:39:39;4.00;99.90
52621;DHT22;38515;53.160;6.990;2024-02-26T00:42:05;3.60;99.90
52621;DHT22;38515;53.160;6.990;2024-02-26T00:44:31;3.60;99.90
52621;DHT22;38515;53.160;6.990;2024-02-26T00:46:57;3.60;99.90
52621;DHT22;38515;53.160;6.990;2024-02-26T00:49:23;3.60;99.90
52621;DHT22;38515;53.160;6.990;2024-02-26T00:51:48;3.60;99.90
52621;DHT22;38515;53.160;6.990;2024-02-26T00:54:14;3.80;99.90
52621;DHT22;38515;53.160;6.990;2024-02-26T00:56:40;3.50;99.90
52621;DHT22;38515;53.160;6.990;2024-02-26T00:59:05;3.50;99.90
52621;DHT22;38515;53.160;6.990;2024-02-26T01:01:31;3.50;99.90
52621;DHT22;38515;53.160;6.990;2024-02-26T01:03:57;3.40;99.90
52621;DHT22;38515;53.160;6.990;2024-02-26T01:06:23;3.50;99.90
52621;DHT22;38515;53.160;6.990;2024-02-26T01:08:48;3.50;99.90
52621;DHT22;38515;53.160;6.990;2024-02-26T01:11:14;3.50;99.90
52621;DHT22;38515;53.160;6.990;2024-02-26T01:13:40;3.50;99.90
52621;DHT22;38515;53.160;6.990;2024-02-26T01:16:05;3.50;99.90
52621;DHT22;38515;53.160;6.990;2024-02-26T01:18:31;3.50;99.90
52621;DHT22;38515;53.160;6.990;2024-02-26T01:20:57;3.50;99.90
52621;DHT22;38515;53.160;6.990;2024-02-26T01:23:23;3.60;99.90
52621;DHT22;38515;53.160;6.990;2024-02-26T01:25:48;3.60;99.90
52621;DHT22;38515;53.160;6.990;2024-02-26T01:28:14;3.60;99.90
52621;DHT22;38515;53.160;6.990;2024-02-26T01:30:40;3.60;99.90
52621;DHT22;38515;53.160;6.990;2024-02-26T01:33:06;3.50;99.90
52621;DHT22;38515;53.160;6.990;2024-02-26T01:35:32;3.50;99.90
52621;DHT22;38515;53.160;6.990;2024-02-26T01:37:58;3.60;99.90
52621;DHT22;38515;53.160;6.990;2024-02-26T01:40:27;3.40;99.90
52621;DHT22;38515;53.160;6.990;2024-02-26T01:42:54;3.60;99.90
52621;DHT22;38515;53.160;6.990;2024-02-26T01:45:20;3.50;99.90
52621;DHT22;38515;53.160;6.990;2024-02-26T01:47:52;3.50;99.90
52621;DHT22;38515;53.160;6.990;2024-02-26T01:50:18;3.50;99.90
52621;DHT22;38515;53.160;6.990;2024-02-26T01:52:49;3.90;99.90
52621;DHT22;38515;53.160;6.990;2024-02-26T01:55:17;3.40;99.90
52621;DHT22;38515;53.160;6.990;2024-02-26T01:57:45;3.40;99.90
52621;DHT22;38515;53.160;6.990;2024-02-26T02:00:12;3.90;99.90
52621;DHT22;38515;53.160;6.990;2024-02-26T02:02:39;3.30;99.90
52621;DHT22;38515;53.160;6.990;2024-02-26T02:05:08;3.60;99.90
52621;DHT22;38515;53.160;6.990;2024-02-26T02:07:35;3.20;99.90
52621;DHT22;38515;53.160;6.990;2024-02-26T02:10:01;3.20;99.90
52621;DHT22;38515;53.160;6.990;2024-02-26T02:12:28;3.20;99.90
52621;DHT22;38515;53.160;6.990;2024-02-26T02:14:53;3.20;99.90
52621;DHT22;38515;53.160;6.990;2024-02-26T02:17:19;3.10;99.90
52621;DHT22;38515;53.160;6.990;2024-02-26T02:19:45;4.10;99.90
52621;DHT22;38515;53.160;6.990;2024-02-26T02:22:11;3.20;99.90
52621;DHT22;38515;53.160;6.990;2024-02-26T02:24:37;3.10;99.90
52621;DHT22;38515;53.160;6.990;2024-02-26T02:27:03;3.30;99.90
52621;DHT22;38515;53.160;6.990;2024-02-26T02:29:29;3.10;99.90
52621;DHT22;38515;53.160;6.990;2024-02-26T02:31:55;3.90;99.90
52621;DHT22;38515;53.160;6.990;2024-02-26T02:34:21;3.70;99.90
52621;DHT22;38515;53.160;6.990;2024-02-26T02:36:54;3.00;99.90
52621;DHT22;38515;53.160;6.990;2024-02-26T02:39:20;3.10;99.90
52621;DHT22;38515;53.160;6.990;2024-02-26T02:41:47;3.10;99.90
52621;DHT22;38515;53.160;6.990;2024-02-26T02:44:13;3.20;99.90
52621;DHT22;38515;53.160;6.990;2024-02-26T02:46:39;3.10;99.90
52621;DHT22;38515;53.160;6.990;2024-02-26T02:49:11;3.50;99.90
52621;DHT22;38515;53.160;6.990;2024-02-26T02:51:37;3.00;99.90
52621;DHT22;38515;53.160;6.990;2024-02-26T02:54:03;3.10;99.90
52621;DHT22;38515;53.160;6.990;2024-02-26T02:56:29;3.10;99.90
52621;DHT22;38515;53.160;6.990;2024-02-26T02:58:55;3.10;99.90
52621;DHT22;38515;53.160;6.990;2024-02-26T03:01:20;3.10;99.90
52621;DHT22;38515;53.160;6.990;2024-02-26T03:03:49;3.30;99.90
52621;DHT22;38515;53.160;6.990;2024-02-26T03:06:15;3.70;99.90
52621;DHT22;38515;53.160;6.990;2024-02-26T03:08:40;3.10;99.90
52621;DHT22;38515;53.160;6.990;2024-02-26T03:11:07;3.20;99.90
52621;DHT22;38515;53.160;6.990;2024-02-26T03:13:33;3.20;99.90
52621;DHT22;38515;53.160;6.990;2024-02-26T03:16:03;3.10;99.90
52621;DHT22;38515;53.160;6.990;2024-02-26T03:18:29;3.10;99.90
52621;DHT22;38515;53.160;6.990;2024-02-26T03:20:54;3.10;99.90
52621;DHT22;38515;53.160;6.990;2024-02-26T03:23:20;3.10;99.90
52621;DHT22;38515;53.160;6.990;2024-02-26T03:25:48;3.10;99.90
52621;DHT22;38515;53.160;6.990;2024-02-26T03:28:14;3.10;99.90
52621;DHT22;38515;53.160;6.990;2024-02-26T03:30:39;3.10;99.90
52621;DHT22;38515;53.160;6.990;2024-02-26T03:33:05;3.80;99.90
52621;DHT22;38515;53.160;6.990;2024-02-26T03:35:31;3.20;99.90
52621;DHT22;38515;53.160;6.990;2024-02-26T03:37:56;3.10;99.90
52621;DHT22;38515;53.160;6.990;2024-02-26T03:40:22;3.10;99.90
52621;DHT22;38515;53.160;6.990;2024-02-26T03:42:47;3.10;99.90
52621;DHT22;38515;53.160;6.990;2024-02-26T03:45:13;3.00;99.90
52621;DHT22;38515;53.160;6.990;2024-02-26T03:47:39;3.00;99.90
52621;DHT22;38515;53.160;6.990;2024-02-26T03:50:06;3.00;99.90
52621;DHT22;38515;53.160;6.990;2024-02-26T03:52:32;3.00;99.90
52621;DHT22;38515;53.160;6.990;2024-02-26T03:54:58;3.00;99.90
52621;DHT22;38515;53.160;6.990;2024-02-26T03:57:24;3.00;99.90
52621;DHT22;38515;53.160;6.990;2024-02-26T03:59:49;2.90;99.90
52621;DHT22;38515;53.160;6.990;2024-02-26T04:02:16;2.90;99.90
52621;DHT22;38515;53.160;6.990;2024-02-26T04:04:42;2.90;99.90
52621;DHT22;38515;53.160;6.990;2024-02-26T04:07:07;3.00;99.90
52621;DHT22;38515;53.160;6.990;2024-02-26T04:09:33;3.00;99.90
52621;DHT22;38515;53.160;6.990;2024-02-26T04:11:59;3.00;99.90
52621;DHT22;38515;53.160;6.990;2024-02-26T04:14:25;3.00;99.90
52621;DHT22;38515;53.160;6.990;2024-02-26T04:16:51;3.00;99.90
52621;DHT22;38515;53.160;6.990;2024-02-26T04:19:19;3.00;99.90
52621;DHT22;38515;53.160;6.990;2024-02-26T04:21:45;3.20;99.90
52621;DHT22;38515;53.160;6.990;2024-02-26T04:24:11;3.70;99.90
52621;DHT22;38515;53.160;6.990;2024-02-26T04:26:37;3.00;99.90
52621;DHT22;38515;53.160;6.990;2024-02-26T04:29:02;3.00;99.90
52621;DHT22;38515;53.160;6.990;2024-02-26T04:31:30;3.00;99.90
52621;DHT22;38515;53.160;6.990;2024-02-26T04:33:58;3.00;99.90
52621;DHT22;38515;53.160;6.990;2024-02-26T04:36:24;3.00;99.90
52621;DHT22;38515;53.160;6.990;2024-02-26T04:38:51;3.40;99.90
52621;DHT22;38515;53.160;6.990;2024-02-26T04:41:17;3.00;99.90
52621;DHT22;38515;53.160;6.990;2024-02-26T04:43:43;3.00;99.90
52621;DHT22;38515;53.160;6.990;2024-02-26T04:46:09;3.60;99.90
52621;DHT22;38515;53.160;6.990;2024-02-26T04:48:38;2.90;99.90
52621;DHT22;38515;53.160;6.990;2024-02-26T04:51:04;2.90;99.90
52621;DHT22;38515;53.160;6.990;2024-02-26T04:53:30;2.90;99.90
52621;DHT22;38515;53.160;6.990;2024-02-26T04:55:56;2.90;99.90
52621;DHT22;38515;53.160;6.990;2024-02-26T04:58:23;2.90;99.90
52621;DHT22;38515;53.160;6.990;2024-02-26T05:00:48;2.90;99.90
52621;DHT22;38515;53.160;6.990;2024-02-26T05:03:14;3.10;99.90
52621;DHT22;38515;53.160;6.990;2024-02-26T05:05:44;2.90;99.90
52621;DHT22;38515;53.160;6.990;2024-02-26T05:08:10;2.90;99.90
52621;DHT22;38515;53.160;6.990;2024-02-26T05:10:37;2.90;99.90
52621;DHT22;38515;53.160;6.990;2024-02-26T05:13:08;2.90;99.90
52621;DHT22;38515;53.160;6.990;2024-02-26T05:15:33;2.90;99.90
52621;DHT22;38515;53.160;6.990;2024-02-26T05:17:59;3.00;99.90
52621;DHT22;38515;53.160;6.990;2024-02-26T05:20:25;2.80;99.90
52621;DHT22;38515;53.160;6.990;2024-02-26T05:22:51;2.90;99.90
52621;DHT22;38515;53.160;6.990;2024-02-26T05:25:17;2.90;99.90
52621;DHT22;38515;53.160;6.990;2024-02-26T05:27:43;2.90;99.90
52621;DHT22;38515;53.160;6.990;2024-02-26T05:30:10;2.80;99.90
52621;DHT22;38515;53.160;6.990;2024-02-26T05:32:36;1.70;99.90
52621;DHT22;38515;53.160;6.990;2024-02-26T05:35:01;2.90;99.90
52621;DHT22;38515;53.160;6.990;2024-02-26T05:37:29;2.90;99.90
52621;DHT22;38515;53.160;6.990;2024-02-26T05:39:55;2.90;99.90
52621;DHT22;38515;53.160;6.990;2024-02-26T05:42:20;2.90;99.90
52621;DHT22;38515;53.160;6.990;2024-02-26T05:44:46;2.90;99.90
52621;DHT22;38515;53.160;6.990;2024-02-26T05:47:12;3.20;99.90
52621;DHT22;38515;53.160;6.990;2024-02-26T05:49:39;3.90;99.90
52621;DHT22;38515;53.160;6.990;2024-02-26T05:52:05;2.90;99.90
52621;DHT22;38515;53.160;6.990;2024-02-26T05:54:31;2.90;99.90
52621;DHT22;38515;53.160;6.990;2024-02-26T05:56:57;2.90;99.90
52621;DHT22;38515;53.160;6.990;2024-02-26T05:59:23;2.90;99.90
52621;DHT22;38515;53.160;6.990;2024-02-26T06:01:50;2.90;99.90
52621;DHT22;38515;53.160;6.990;2024-02-26T06:04:16;2.90;99.90
52621;DHT22;38515;53.160;6.990;2024-02-26T06:06:44;3.40;99.90
52621;DHT22;38515;53.160;6.990;2024-02-26T06:09:11;2.90;99.90
52621;DHT22;38515;53.160;6.990;2024-02-26T06:11:37;2.90;99.90
52621;DHT22;38515;53.160;6.990;2024-02-26T06:14:03;2.90;99.90
52621;DHT22;38515;53.160;6.990;2024-02-26T06:16:28;2.90;99.90
52621;DHT22;38515;53.160;6.990;2024-02-26T06:18:54;2.80;99.90
52621;DHT22;38515;53.160;6.990;2024-02-26T06:21:20;3.00;99.90
52621;DHT22;38515;53.160;6.990;2024-02-26T06:23:45;3.00;99.90
52621;DHT22;38515;53.160;6.990;2024-02-26T06:26:11;2.90;99.90
52621;DHT22;38515;53.160;6.990;2024-02-26T06:28:37;2.90;99.90
52621;DHT22;38515;53.160;6.990;2024-02-26T06:31:06;3.00;99.90
52621;DHT22;38515;53.160;6.990;2024-02-26T06:33:32;2.90;99.90
52621;DHT22;38515;53.160;6.990;2024-02-26T06:35:58;2.90;99.90
52621;DHT22;38515;53.160;6.990;2024-02-26T06:38:24;2.90;99.90
52621;DHT22;38515;53.160;6.990;2024-02-26T06:40:49;2.90;99.90
52621;DHT22;38515;53.160;6.990;2024-02-26T06:43:15;3.50;99.90
52621;DHT22;38515;53.160;6.990;2024-02-26T06:45:41;2.90;99.90
52621;DHT22;38515;53.160;6.990;2024-02-26T06:48:07;2.90;99.90
52621;DHT22;38515;53.160;6.990;2024-02-26T06:50:32;2.90;99.90
52621;DHT22;38515;53.160;6.990;2024-02-26T06:52:58;2.90;99.90
52621;DHT22;38515;53.160;6.990;2024-02-26T06:55:24;2.90;99.90
52621;DHT22;38515;53.160;6.990;2024-02-26T06:57:49;3.00;99.90
52621;DHT22;38515;53.160;6.990;2024-02-26T07:00:15;3.00;99.90
52621;DHT22;38515;53.160;6.990;2024-02-26T07:02:42;3.00;99.90
52621;DHT22;38515;53.160;6.990;2024-02-26T07:05:08;3.00;99.90
52621;DHT22;38515;53.160;6.990;2024-02-26T07:07:34;3.00;99.90
52621;DHT22;38515;53.160;6.990;2024-02-26T07:10:00;3.00;99.90
52621;DHT22;38515;53.160;6.990;2024-02-26T07:12:29;3.10;99.90
52621;DHT22;38515;53.160;6.990;2024-02-26T07:14:55;3.20;99.90
52621;DHT22;38515;53.160;6.990;2024-02-26T07:17:20;3.10;99.90
52621;DHT22;38515;53.160;6.990;2024-02-26T07:19:46;3.10;99.90
52621;DHT22;38515;53.160;6.990;2024-02-26T07:22:12;3.10;99.90
52621;DHT22;38515;53.160;6.990;2024-02-26T07:24:37;3.50;99.90
52621;DHT22;38515;53.160;6.990;2024-02-26T07:27:03;3.20;99.90
52621;DHT22;38515;53.160;6.990;2024-02-26T07:29:32;3.20;99.90
52621;DHT22;38515;53.160;6.990;2024-02-26T07:31:58;3.30;99.90
52621;DHT22;38515;53.160;6.990;2024-02-26T07:34:24;3.20;99.90
52621;DHT22;38515;53.160;6.990;2024-02-26T07:36:55;3.20;99.90
52621;DHT22;38515;53.160;6.990;2024-02-26T07:39:20;3.20;99.90
52621;DHT22;38515;53.160;6.990;2024-02-26T07:41:46;3.30;99.90
52621;DHT22;38515;53.160;6.990;2024-02-26T07:44:15;3.30;99.90
52621;DHT22;38515;53.160;6.990;2024-02-26T07:46:41;3.30;99.90
52621;DHT22;38515;53.160;6.990;2024-02-26T07:49:06;3.30;99.90
52621;DHT22;38515;53.160;6.990;2024-02-26T07:51:33;3.40;99.90
52621;DHT22;38515;53.160;6.990;2024-02-26T07:53:58;3.40;99.90
52621;DHT22;38515;53.160;6.990;2024-02-26T07:56:24;3.50;99.90
52621;DHT22;38515;53.160;6.990;2024-02-26T07:58:49;3.40;99.90
52621;DHT22;38515;53.160;6.990;2024-02-26T08:01:15;3.50;99.90
52621;DHT22;38515;53.160;6.990;2024-02-26T08:03:41;3.50;99.90
52621;DHT22;38515;53.160;6.990;2024-02-26T08:06:09;3.70;99.90
52621;DHT22;38515;53.160;6.990;2024-02-26T08:08:34;3.60;99.90
52621;DHT22;38515;53.160;6.990;2024-02-26T08:11:00;3.60;99.90
52621;DHT22;38515;53.160;6.990;2024-02-26T08:13:26;3.60;99.90
52621;DHT22;38515;53.160;6.990;2024-02-26T08:15:52;3.70;99.90
52621;DHT22;38515;53.160;6.990;2024-02-26T08:18:18;4.00;99.90
52621;DHT22;38515;53.160;6.990;2024-02-26T08:20:44;3.70;99.90
52621;DHT22;38515;53.160;6.990;2024-02-26T08:23:10;3.70;99.90
52621;DHT22;38515;53.160;6.990;2024-02-26T08:25:36;3.70;99.90
52621;DHT22;38515;53.160;6.990;2024-02-26T08:28:02;3.80;99.90
52621;DHT22;38515;53.160;6.990;2024-02-26T08:30:28;3.80;99.90
52621;DHT22;38515;53.160;6.990;2024-02-26T08:32:54;3.80;99.90
52621;DHT22;38515;53.160;6.990;2024-02-26T08:35:19;3.80;99.90
52621;DHT22;38515;53.160;6.990;2024-02-26T08:37:45;3.80;99.90
52621;DHT22;38515;53.160;6.990;2024-02-26T08:40:11;3.90;99.90
52621;DHT22;38515;53.160;6.990;2024-02-26T08:42:37;3.90;99.90
52621;DHT22;38515;53.160;6.990;2024-02-26T08:45:03;4.00;99.90
52621;DHT22;38515;53.160;6.990;2024-02-26T08:47:29;4.00;99.90
52621;DHT22;38515;53.160;6.990;2024-02-26T08:49:55;4.10;99.90
52621;DHT22;38515;53.160;6.990;2024-02-26T08:52:20;4.00;99.90
52621;DHT22;38515;53.160;6.990;2024-02-26T08:54:47;4.10;99.90
52621;DHT22;38515;53.160;6.990;2024-02-26T08:57:13;3.90;99.90
52621;DHT22;38515;53.160;6.990;2024-02-26T08:59:38;4.10;99.90
52621;DHT22;38515;53.160;6.990;2024-02-26T09:02:04;4.20;99.90
52621;DHT22;38515;53.160;6.990;2024-02-26T09:04:30;4.20;99.90
52621;DHT22;38515;53.160;6.990;2024-02-26T09:06:55;4.30;99.90
52621;DHT22;38515;53.160;6.990;2024-02-26T09:09:21;4.20;99.90
52621;DHT22;38515;53.160;6.990;2024-02-26T09:11:48;4.40;99.90
52621;DHT22;38515;53.160;6.990;2024-02-26T09:14:17;4.30;99.90
52621;DHT22;38515;53.160;6.990;2024-02-26T09:16:42;4.30;99.90
52621;DHT22;38515;53.160;6.990;2024-02-26T09:19:08;4.50;99.90
52621;DHT22;38515;53.160;6.990;2024-02-26T09:21:34;4.40;99.90
52621;DHT22;38515;53.160;6.990;2024-02-26T09:23:59;4.50;99.90
52621;DHT22;38515;53.160;6.990;2024-02-26T09:26:25;4.50;99.90
52621;DHT22;38515;53.160;6.990;2024-02-26T09:28:51;4.60;99.90
52621;DHT22;38515;53.160;6.990;2024-02-26T09:31:18;4.60;99.90
52621;DHT22;38515;53.160;6.990;2024-02-26T09:33:44;5.50;99.90
52621;DHT22;38515;53.160;6.990;2024-02-26T09:36:09;4.70;99.90
52621;DHT22;38515;53.160;6.990;2024-02-26T09:38:37;4.80;99.90
52621;DHT22;38515;53.160;6.990;2024-02-26T09:41:04;4.80;99.90
52621;DHT22;38515;53.160;6.990;2024-02-26T09:43:35;4.90;99.90
52621;DHT22;38515;53.160;6.990;2024-02-26T09:46:02;5.00;99.90
52621;DHT22;38515;53.160;6.990;2024-02-26T09:48:29;5.00;99.90
52621;DHT22;38515;53.160;6.990;2024-02-26T09:50:55;5.10;99.90
52621;DHT22;38515;53.160;6.990;2024-02-26T09:53:22;5.00;99.90
52621;DHT22;38515;53.160;6.990;2024-02-26T09:55:48;5.50;99.90
52621;DHT22;38515;53.160;6.990;2024-02-26T09:58:14;5.20;99.90
52621;DHT22;38515;53.160;6.990;2024-02-26T10:00:51;5.20;99.90
52621;DHT22;38515;53.160;6.990;2024-02-26T10:03:21;5.20;32.00
52621;DHT22;38515;53.160;6.990;2024-02-26T10:05:48;5.20;1.00
52621;DHT22;38515;53.160;6.990;2024-02-26T10:08:15;5.30;1.00
52621;DHT22;38515;53.160;6.990;2024-02-26T10:10:41;5.20;1.00
52621;DHT22;38515;53.160;6.990;2024-02-26T10:13:08;5.40;1.00
52621;DHT22;38515;53.160;6.990;2024-02-26T10:15:36;5.40;1.00
52621;DHT22;38515;53.160;6.990;2024-02-26T10:18:06;6.30;99.90
52621;DHT22;38515;53.160;6.990;2024-02-26T10:20:33;5.40;99.90
52621;DHT22;38515;53.160;6.990;2024-02-26T10:23:02;5.60;51.80
52621;DHT22;38515;53.160;6.990;2024-02-26T10:25:28;5.70;99.90
52621;DHT22;38515;53.160;6.990;2024-02-26T10:27:54;5.70;1.00
52621;DHT22;38515;53.160;6.990;2024-02-26T10:30:21;5.80;99.90
52621;DHT22;38515;53.160;6.990;2024-02-26T10:32:48;5.70;1.00
52621;DHT22;38515;53.160;6.990;2024-02-26T10:35:15;6.20;99.90
52621;DHT22;38515;53.160;6.990;2024-02-26T10:37:42;5.80;99.90
52621;DHT22;38515;53.160;6.990;2024-02-26T10:40:14;5.70;1.00
52621;DHT22;38515;53.160;6.990;2024-02-26T10:42:41;6.70;1.00
52621;DHT22;38515;53.160;6.990;2024-02-26T10:45:10;5.70;99.90
52621;DHT22;38515;53.160;6.990;2024-02-26T10:47:37;6.30;53.20
52621;DHT22;38515;53.160;6.990;2024-02-26T10:50:04;5.80;99.90
52621;DHT22;38515;53.160;6.990;2024-02-26T10:52:35;5.90;84.90
52621;DHT22;38515;53.160;6.990;2024-02-26T10:55:03;6.50;99.90
52621;DHT22;38515;53.160;6.990;2024-02-26T10:57:34;5.90;99.90
52621;DHT22;38515;53.160;6.990;2024-02-26T11:00:03;6.90;57.70
52621;DHT22;38515;53.160;6.990;2024-02-26T11:02:33;5.90;99.90
52621;DHT22;38515;53.160;6.990;2024-02-26T11:05:03;5.90;7.50
52621;DHT22;38515;53.160;6.990;2024-02-26T11:07:33;6.00;1.00
52621;DHT22;38515;53.160;6.990;2024-02-26T11:10:00;5.90;1.00
52621;DHT22;38515;53.160;6.990;2024-02-26T11:12:28;6.00;99.90
52621;DHT22;38515;53.160;6.990;2024-02-26T11:14:55;5.90;99.90
52621;DHT22;38515;53.160;6.990;2024-02-26T11:17:28;5.80;99.90
52621;DHT22;38515;53.160;6.990;2024-02-26T11:19:57;5.90;99.90
52621;DHT22;38515;53.160;6.990;2024-02-26T11:22:24;5.80;1.00
52621;DHT22;38515;53.160;6.990;2024-02-26T11:24:55;5.90;99.90
52621;DHT22;38515;53.160;6.990;2024-02-26T11:27:44;5.90;1.00
52621;DHT22;38515;53.160;6.990;2024-02-26T11:30:13;6.20;99.90
52621;DHT22;38515;53.160;6.990;2024-02-26T11:32:39;6.10;1.00
52621;DHT22;38515;53.160;6.990;2024-02-26T11:35:05;6.20;99.90
52621;DHT22;38515;53.160;6.990;2024-02-26T11:37:32;6.30;99.90
52621;DHT22;38515;53.160;6.990;2024-02-26T11:40:01;6.30;1.00
52621;DHT22;38515;53.160;6.990;2024-02-26T11:42:27;6.40;1.00
52621;DHT22;38515;53.160;6.990;2024-02-26T11:44:55;6.40;99.90
52621;DHT22;38515;53.160;6.990;2024-02-26T11:47:27;6.40;99.90
52621;DHT22;38515;53.160;6.990;2024-02-26T11:49:53;7.30;99.90
52621;DHT22;38515;53.160;6.990;2024-02-26T11:52:18;6.80;1.00
52621;DHT22;38515;53.160;6.990;2024-02-26T11:57:29;6.70;1.00
52621;DHT22;38515;53.160;6.990;2024-02-26T12:00:02;6.60;1.00
52621;DHT22;38515;53.160;6.990;2024-02-26T12:05:19;6.50;99.90
52621;DHT22;38515;53.160;6.990;2024-02-26T12:07:52;6.60;99.90
52621;DHT22;38515;53.160;6.990;2024-02-26T12:10:27;6.90;1.00
52621;DHT22;38515;53.160;6.990;2024-02-26T12:13:14;6.50;1.00
52621;DHT22;38515;53.160;6.990;2024-02-26T12:16:06;6.50;27.00
52621;DHT22;38515;53.160;6.990;2024-02-26T12:18:31;6.50;99.90
52621;DHT22;38515;53.160;6.990;2024-02-26T12:21:04;6.50;99.90
52621;DHT22;38515;53.160;6.990;2024-02-26T12:23:30;6.50;99.90
52621;DHT22;38515;53.160;6.990;2024-02-26T12:26:00;6.80;1.00
52621;DHT22;38515;53.160;6.990;2024-02-26T12:28:29;7.00;99.90
52621;DHT22;38515;53.160;6.990;2024-02-26T12:30:55;7.10;99.90
52621;DHT22;38515;53.160;6.990;2024-02-26T12:33:21;7.20;99.90
52621;DHT22;38515;53.160;6.990;2024-02-26T12:35:46;7.00;99.90
52621;DHT22;38515;53.160;6.990;2024-02-26T12:38:15;7.10;99.90
52621;DHT22;38515;53.160;6.990;2024-02-26T12:40:43;7.10;99.90
52621;DHT22;38515;53.160;6.990;2024-02-26T12:43:08;7.00;99.90
52621;DHT22;38515;53.160;6.990;2024-02-26T12:45:42;6.80;93.00
52621;DHT22;38515;53.160;6.990;2024-02-26T12:48:09;6.70;1.00
52621;DHT22;38515;53.160;6.990;2024-02-26T12:50:36;6.50;15.20
52621;DHT22;38515;53.160;6.990;2024-02-26T12:53:01;6.70;99.90
52621;DHT22;38515;53.160;6.990;2024-02-26T12:55:27;6.50;99.90
52621;DHT22;38515;53.160;6.990;2024-02-26T12:57:53;6.40;99.90
52621;DHT22;38515;53.160;6.990;2024-02-26T13:00:26;6.30;1.00
52621;DHT22;38515;53.160;6.990;2024-02-26T13:02:53;6.00;99.90
52621;DHT22;38515;53.160;6.990;2024-02-26T13:05:21;6.30;99.90
52621;DHT22;38515;53.160;6.990;2024-02-26T13:07:48;5.80;1.00
52621;DHT22;38515;53.160;6.990;2024-02-26T13:10:14;5.80;99.90
52621;DHT22;38515;53.160;6.990;2024-02-26T13:12:44;5.80;99.90
52621;DHT22;38515;53.160;6.990;2024-02-26T13:15:16;6.20;1.00
52621;DHT22;38515;53.160;6.990;2024-02-26T13:17:42;5.90;1.00
52621;DHT22;38515;53.160;6.990;2024-02-26T13:20:08;5.90;99.90
52621;DHT22;38515;53.160;6.990;2024-02-26T13:22:36;5.80;99.90
52621;DHT22;38515;53.160;6.990;2024-02-26T13:25:01;5.80;99.90
52621;DHT22;38515;53.160;6.990;2024-02-26T13:27:30;5.80;18.60
52621;DHT22;38515;53.160;6.990;2024-02-26T13:30:12;5.70;1.00
52621;DHT22;38515;53.160;6.990;2024-02-26T13:32:41;5.60;99.90
52621;DHT22;38515;53.160;6.990;2024-02-26T13:35:11;5.70;1.00
52621;DHT22;38515;53.160;6.990;2024-02-26T13:37:38;5.50;99.90
52621;DHT22;38515;53.160;6.990;2024-02-26T13:40:13;5.70;1.00
52621;DHT22;38515;53.160;6.990;2024-02-26T13:42:39;5.70;6.10
52621;DHT22;38515;53.160;6.990;2024-02-26T13:45:05;5.70;99.90
52621;DHT22;38515;53.160;6.990;2024-02-26T13:47:34;5.70;10.50
52621;DHT22;38515;53.160;6.990;2024-02-26T13:50:01;5.80;99.90
52621;DHT22;38515;53.160;6.990;2024-02-26T13:52:27;5.70;99.90
52621;DHT22;38515;53.160;6.990;2024-02-26T13:54:52;5.60;99.90
52621;DHT22;38515;53.160;6.990;2024-02-26T13:57:21;5.60;1.00
52621;DHT22;38515;53.160;6.990;2024-02-26T13:59:47;5.60;99.90
52621;DHT22;38515;53.160;6.990;2024-02-26T14:02:13;5.50;89.70
52621;DHT22;38515;53.160;6.990;2024-02-26T14:04:39;5.50;99.90
52621;DHT22;38515;53.160;6.990;2024-02-26T14:07:05;5.40;1.00
52621;DHT22;38515;53.160;6.990;2024-02-26T14:09:31;5.90;99.90
52621;DHT22;38515;53.160;6.990;2024-02-26T14:11:58;5.50;24.90
52621;DHT22;38515;53.160;6.990;2024-02-26T14:14:24;5.40;99.90
52621;DHT22;38515;53.160;6.990;2024-02-26T14:16:51;5.40;99.90
52621;DHT22;38515;53.160;6.990;2024-02-26T14:19:17;5.50;30.10
52621;DHT22;38515;53.160;6.990;2024-02-26T14:21:42;5.40;1.00
52621;DHT22;38515;53.160;6.990;2024-02-26T14:24:08;5.40;99.90
52621;DHT22;38515;53.160;6.990;2024-02-26T14:26:34;5.40;1.00
52621;DHT22;38515;53.160;6.990;2024-02-26T14:29:00;5.40;1.00
52621;DHT22;38515;53.160;6.990;2024-02-26T14:31:25;5.50;14.10
52621;DHT22;38515;53.160;6.990;2024-02-26T14:33:52;5.40;1.00
52621;DHT22;38515;53.160;6.990;2024-02-26T14:36:20;5.40;1.00
52621;DHT22;38515;53.160;6.990;2024-02-26T14:38:46;5.50;1.00
52621;DHT22;38515;53.160;6.990;2024-02-26T14:41:12;5.40;1.00
52621;DHT22;38515;53.160;6.990;2024-02-26T14:43:38;5.50;1.00
52621;DHT22;38515;53.160;6.990;2024-02-26T14:46:03;5.60;99.90
52621;DHT22;38515;53.160;6.990;2024-02-26T14:48:30;5.40;99.90
52621;DHT22;38515;53.160;6.990;2024-02-26T14:50:57;5.40;98.40
52621;DHT22;38515;53.160;6.990;2024-02-26T14:53:22;5.40;1.00
52621;DHT22;38515;53.160;6.990;2024-02-26T14:55:48;5.40;99.90
52621;DHT22;38515;53.160;6.990;2024-02-26T14:58:14;5.40;1.00
52621;DHT22;38515;53.160;6.990;2024-02-26T15:00:39;5.40;1.00
52621;DHT22;38515;53.160;6.990;2024-02-26T15:03:05;5.40;1.00
52621;DHT22;38515;53.160;6.990;2024-02-26T15:05:32;5.30;1.00
52621;DHT22;38515;53.160;6.990;2024-02-26T15:07:58;5.30;99.90
52621;DHT22;38515;53.160;6.990;2024-02-26T15:10:25;5.30;1.00
52621;DHT22;38515;53.160;6.990;2024-02-26T15:12:51;5.40;1.00
52621;DHT22;38515;53.160;6.990;2024-02-26T15:15:23;5.40;99.90
52621;DHT22;38515;53.160;6.990;2024-02-26T15:17:49;5.30;99.90
52621;DHT22;38515;53.160;6.990;2024-02-26T15:20:15;5.30;1.00
52621;DHT22;38515;53.160;6.990;2024-02-26T15:22:41;5.60;99.90
52621;DHT22;38515;53.160;6.990;2024-02-26T15:25:08;5.20;99.90
52621;DHT22;38515;53.160;6.990;2024-02-26T15:27:33;5.30;1.00
52621;DHT22;38515;53.160;6.990;2024-02-26T15:30:00;5.30;99.90
52621;DHT22;38515;53.160;6.990;2024-02-26T15:32:26;5.20;99.90
52621;DHT22;38515;53.160;6.990;2024-02-26T15:34:53;5.50;99.90
52621;DHT22;38515;53.160;6.990;2024-02-26T15:37:19;5.20;1.00
52621;DHT22;38515;53.160;6.990;2024-02-26T15:39:45;5.40;99.90
52621;DHT22;38515;53.160;6.990;2024-02-26T15:42:11;5.20;1.00
52621;DHT22;38515;53.160;6.990;2024-02-26T15:44:38;5.20;99.90
52621;DHT22;38515;53.160;6.990;2024-02-26T15:47:04;5.20;1.00
52621;DHT22;38515;53.160;6.990;2024-02-26T15:49:31;5.20;1.00